Terminal Aerodrome Forecast
Issued by NWS Pueblo, CO

Home | Current Version | Previous Version | Text Only | Print | Product List | Glossary On
Versions: 1 2 3 4 5 6 7 8 9 10 11 12 13 14 15 16 17 18 19 20 21
000
FTUS45 KPUB 071123
TAFCOS
TAF
KCOS 071123Z 0712/0812 02010KT P6SM SCT025 BKN070
      TEMPO 0712/0714 1SM -SN FEW010 BKN020
     FM071400 01014KT P6SM BKN040
     FM071600 03012KT P6SM SCT040 BKN090
     FM072100 06010KT P6SM VCSH SCT020 BKN040
     FM080500 12005KT P6SM FEW020 BKN060=

USA.gov is the U.S. government's official web portal to all federal, state and local government web resources and services.